Tutti
Sydney Olympic Park Airport YSOP Meteo
There is no TAF data available at YSOP. Showing TAF data for YSBK (7 mi SO).
Previsione area Terminal BWU (nessun dato per YSOP)
| Here is the undecoded forecast: 2026/05/07 23:11 YSBK 072311Z 0800/0812 25018G28KT CAVOK FM080700 24010KT CAVOK FM081100 27004KT CAVOK RMK FM080000 MOD TURB BLW 5000FT TL080300 T 16 20 18 15 Q 1018 1016 1017 1019 |
There is no METAR data available at YSOP. Showing METAR data for YSBK (7 mi SO).
Storico METAR BWU recente (nessun dato per YSOP)
| Date | Time (AEST) | Flight Rules | Wind Dir. | Speed | Type | Height AGL (ft) | Visibility | Temp (°C) | Temp (°F) | Dew Point (°C) | Dew Point (°F) | Rel. Humid. | Pressure | Density Altitude | Remarks |
|---|---|---|---|---|---|---|---|---|---|---|---|---|---|---|---|
| 08-mag | 13:00 | VFR | 280° | 11 kt | 10000 meters | 20° | 68° | 5° | 41° | 37% | 1016 mb | 547 ft | |||
| 08-mag | 12:00 | VFR | 260° | 12 kt | 10000 meters | 19° | 66° | 5° | 41° | 40% | 1017 mb | 397 ft | Wind gusting to 22 KT | ||
| 08-mag | 11:00 | VFR | 260° | 14 kt | 10000 meters | 18° | 64° | 5° | 41° | 42% | 1018 mb | 247 ft | |||
| 08-mag | 10:00 | VFR | 270° | 8 kt | 10000 meters | 17° | 62° | 6° | 42° | 48% | 1018 mb | 127 ft | |||
| 08-mag | 09:00 | VFR | 310° | 5 kt | 10000 meters | 14° | 57° | 5° | 41° | 55% | 1018 mb | -233 ft | |||
| 08-mag | 08:00 | VFR | 340° | 5 kt | 10000 meters | 11° | 51° | 4° | 39° | 62% | 1018 mb | -593 ft | |||
| 08-mag | 07:00 | VFR | 350° | 5 kt | 10000 meters | 9° | 48° | 3° | 37° | 66% | 1018 mb | -833 ft | |||
| 08-mag | 06:00 | VFR | 320° | 4 kt | 10000 meters | 8° | 46° | 3° | 37° | 71% | 1018 mb | -953 ft | |||
| 08-mag | 05:00 | VFR | 330° | 5 kt | 10000 meters | 9° | 48° | 3° | 37° | 66% | 1018 mb | -833 ft | |||
| 08-mag | 04:00 | VFR | 270° | 6 kt | 10000 meters | 10° | 50° | 2° | 35° | 57% | 1018 mb | -713 ft | |||
| 08-mag | 03:00 | VFR | 270° | 7 kt | 10000 meters | 10° | 50° | 2° | 35° | 57% | 1018 mb | -713 ft | |||
| 08-mag | 02:00 | VFR | 270° | 8 kt | 10000 meters | 10° | 50° | 2° | 35° | 57% | 1019 mb | -742 ft | |||
| 08-mag | 01:00 | VFR | 270° | 8 kt | 10000 meters | 10° | 50° | 1° | 33° | 53% | 1019 mb | -742 ft | |||
| 08-mag | 00:00 | VFR | 270° | 7 kt | 10000 meters | 10° | 50° | 0° | 32° | 50% | 1019 mb | -742 ft | |||
| 07-mag | 23:00 | VFR | 270° | 8 kt | 10000 meters | 10° | 50° | 0° | 32° | 50% | 1019 mb | -742 ft | |||
| 07-mag | 22:00 | VFR | 270° | 9 kt | 10000 meters | 11° | 51° | 0° | 32° | 47% | 1019 mb | -622 ft | |||
| 07-mag | 21:00 | VFR | 280° | 11 kt | 10000 meters | 11° | 51° | 0° | 32° | 47% | 1019 mb | -622 ft | |||
| 07-mag | 20:00 | VFR | 260° | 10 kt | 10000 meters | 12° | 53° | -1° | 30° | 40% | 1019 mb | -502 ft | |||
| 07-mag | 19:00 | VFR | 260° | 9 kt | 10000 meters | 12° | 53° | -1° | 30° | 40% | 1018 mb | -473 ft | |||
| 07-mag | 18:00 | VFR | 260° | 9 kt | 10000 meters | 13° | 55° | -1° | 30° | 38% | 1017 mb | -323 ft | |||
| 07-mag | 17:00 | VFR | 260° | 14 kt | 10000 meters | 14° | 57° | -2° | 28° | 33% | 1016 mb | -173 ft | |||
| 07-mag | 16:07 | VFR | 260° | 17 kt | 10000 meters | 15° | 59° | -2° | 28° | 31% | 1016 mb | -53 ft | Wind gusting to 27 KT | ||
| 07-mag | 15:05 | VFR | 250° | 15 kt | 10000 meters | 16° | 60° | -2° | 28° | 29% | 1015 mb | 96 ft | Wind gusting to 25 KT | ||
| 07-mag | 14:00 | VFR | 270° | 15 kt | 10000 meters | 17° | 62° | -3° | 26° | 25% | 1014 mb | 246 ft |
Accedi
| Il tuo browser non è supportato. fai l'upgrade del tuo browser |
